sensor_id;sensor_type;location;lat;lon;timestamp;P1;durP1;ratioP1;P2;durP2;ratioP2
12768;SDS011;6448;48.916;8.990;2023-01-23T00:00:03;5.20;;;4.80;;
12768;SDS011;6448;48.916;8.990;2023-01-23T00:01:12;4.70;;;4.40;;
12768;SDS011;6448;48.916;8.990;2023-01-23T00:02:15;4.90;;;4.60;;
12768;SDS011;6448;48.916;8.990;2023-01-23T00:03:17;5.33;;;4.93;;
12768;SDS011;6448;48.916;8.990;2023-01-23T00:04:18;4.80;;;4.50;;
12768;SDS011;6448;48.916;8.990;2023-01-23T00:05:19;5.25;;;4.85;;
12768;SDS011;6448;48.916;8.990;2023-01-23T00:06:21;5.10;;;4.70;;
12768;SDS011;6448;48.916;8.990;2023-01-23T00:07:22;4.95;;;4.55;;
12768;SDS011;6448;48.916;8.990;2023-01-23T00:08:24;4.70;;;4.40;;
12768;SDS011;6448;48.916;8.990;2023-01-23T00:09:25;4.97;;;4.68;;
12768;SDS011;6448;48.916;8.990;2023-01-23T00:10:27;5.10;;;4.70;;
12768;SDS011;6448;48.916;8.990;2023-01-23T00:11:28;5.05;;;4.75;;
12768;SDS011;6448;48.916;8.990;2023-01-23T00:12:31;5.07;;;4.68;;
12768;SDS011;6448;48.916;8.990;2023-01-23T00:13:31;5.18;;;4.78;;
12768;SDS011;6448;48.916;8.990;2023-01-23T00:14:35;5.57;;;5.18;;
12768;SDS011;6448;48.916;8.990;2023-01-23T00:15:37;5.30;;;4.90;;
12768;SDS011;6448;48.916;8.990;2023-01-23T00:16:40;5.40;;;5.00;;
12768;SDS011;6448;48.916;8.990;2023-01-23T00:17:41;5.25;;;4.88;;
12768;SDS011;6448;48.916;8.990;2023-01-23T00:18:44;5.20;;;4.80;;
12768;SDS011;6448;48.916;8.990;2023-01-23T00:19:45;5.07;;;4.75;;
12768;SDS011;6448;48.916;8.990;2023-01-23T00:20:47;5.70;;;5.30;;
12768;SDS011;6448;48.916;8.990;2023-01-23T00:21:48;5.70;;;5.30;;
12768;SDS011;6448;48.916;8.990;2023-01-23T00:22:49;5.60;;;5.20;;
12768;SDS011;6448;48.916;8.990;2023-01-23T00:23:51;5.30;;;4.90;;
12768;SDS011;6448;48.916;8.990;2023-01-23T00:24:53;5.40;;;5.00;;
12768;SDS011;6448;48.916;8.990;2023-01-23T00:25:54;5.30;;;4.90;;
12768;SDS011;6448;48.916;8.990;2023-01-23T00:26:56;5.32;;;4.93;;
12768;SDS011;6448;48.916;8.990;2023-01-23T00:27:57;5.32;;;4.93;;
12768;SDS011;6448;48.916;8.990;2023-01-23T00:28:58;5.40;;;5.00;;
12768;SDS011;6448;48.916;8.990;2023-01-23T00:30:01;5.30;;;4.90;;
12768;SDS011;6448;48.916;8.990;2023-01-23T00:31:03;5.38;;;4.97;;
12768;SDS011;6448;48.916;8.990;2023-01-23T00:32:04;5.30;;;4.90;;
12768;SDS011;6448;48.916;8.990;2023-01-23T00:33:06;5.55;;;5.15;;
12768;SDS011;6448;48.916;8.990;2023-01-23T00:34:10;5.65;;;5.25;;
12768;SDS011;6448;48.916;8.990;2023-01-23T00:35:14;5.55;;;5.15;;
12768;SDS011;6448;48.916;8.990;2023-01-23T00:36:15;5.23;;;4.83;;
12768;SDS011;6448;48.916;8.990;2023-01-23T00:37:18;5.50;;;5.10;;
12768;SDS011;6448;48.916;8.990;2023-01-23T00:38:19;4.97;;;4.68;;
12768;SDS011;6448;48.916;8.990;2023-01-23T00:39:21;5.30;;;4.90;;
12768;SDS011;6448;48.916;8.990;2023-01-23T00:40:22;5.82;;;5.43;;
12768;SDS011;6448;48.916;8.990;2023-01-23T00:41:24;5.30;;;4.90;;
12768;SDS011;6448;48.916;8.990;2023-01-23T00:42:26;5.63;;;5.22;;
12768;SDS011;6448;48.916;8.990;2023-01-23T00:43:28;5.05;;;4.65;;
12768;SDS011;6448;48.916;8.990;2023-01-23T00:44:30;5.70;;;5.30;;
12768;SDS011;6448;48.916;8.990;2023-01-23T00:45:33;5.60;;;5.20;;
12768;SDS011;6448;48.916;8.990;2023-01-23T00:46:34;5.40;;;5.00;;
12768;SDS011;6448;48.916;8.990;2023-01-23T00:47:36;5.28;;;4.88;;
12768;SDS011;6448;48.916;8.990;2023-01-23T00:48:37;5.47;;;5.07;;
12768;SDS011;6448;48.916;8.990;2023-01-23T00:49:39;5.57;;;5.17;;
12768;SDS011;6448;48.916;8.990;2023-01-23T00:50:40;5.60;;;5.20;;
12768;SDS011;6448;48.916;8.990;2023-01-23T00:51:41;5.55;;;5.15;;
12768;SDS011;6448;48.916;8.990;2023-01-23T00:52:43;5.82;;;5.43;;
12768;SDS011;6448;48.916;8.990;2023-01-23T00:53:44;5.50;;;5.10;;
12768;SDS011;6448;48.916;8.990;2023-01-23T00:54:45;5.63;;;5.22;;
12768;SDS011;6448;48.916;8.990;2023-01-23T00:55:47;5.40;;;5.00;;
12768;SDS011;6448;48.916;8.990;2023-01-23T00:56:47;5.47;;;5.07;;
12768;SDS011;6448;48.916;8.990;2023-01-23T00:57:49;5.00;;;4.70;;
12768;SDS011;6448;48.916;8.990;2023-01-23T00:58:50;5.22;;;4.85;;
12768;SDS011;6448;48.916;8.990;2023-01-23T00:59:52;5.10;;;4.80;;
12768;SDS011;6448;48.916;8.990;2023-01-23T01:00:54;5.50;;;5.10;;
12768;SDS011;6448;48.916;8.990;2023-01-23T01:01:56;5.70;;;5.30;;
12768;SDS011;6448;48.916;8.990;2023-01-23T01:02:57;5.30;;;4.90;;
12768;SDS011;6448;48.916;8.990;2023-01-23T01:03:59;5.30;;;4.90;;
12768;SDS011;6448;48.916;8.990;2023-01-23T01:05:00;5.15;;;4.75;;
12768;SDS011;6448;48.916;8.990;2023-01-23T01:06:02;5.70;;;5.30;;
12768;SDS011;6448;48.916;8.990;2023-01-23T01:07:03;5.53;;;5.13;;
12768;SDS011;6448;48.916;8.990;2023-01-23T01:08:05;5.43;;;5.03;;
12768;SDS011;6448;48.916;8.990;2023-01-23T01:09:06;5.70;;;5.20;;
12768;SDS011;6448;48.916;8.990;2023-01-23T01:10:08;5.45;;;5.05;;
12768;SDS011;6448;48.916;8.990;2023-01-23T01:11:11;5.50;;;5.10;;
12768;SDS011;6448;48.916;8.990;2023-01-23T01:12:12;5.35;;;4.95;;
12768;SDS011;6448;48.916;8.990;2023-01-23T01:13:13;5.70;;;5.30;;
12768;SDS011;6448;48.916;8.990;2023-01-23T01:14:18;5.40;;;5.00;;
12768;SDS011;6448;48.916;8.990;2023-01-23T01:15:20;5.40;;;5.00;;
12768;SDS011;6448;48.916;8.990;2023-01-23T01:16:23;5.28;;;4.88;;
12768;SDS011;6448;48.916;8.990;2023-01-23T01:17:24;5.25;;;4.85;;
12768;SDS011;6448;48.916;8.990;2023-01-23T01:18:26;5.30;;;4.90;;
12768;SDS011;6448;48.916;8.990;2023-01-23T01:19:27;5.68;;;5.28;;
12768;SDS011;6448;48.916;8.990;2023-01-23T01:20:29;5.32;;;4.93;;
12768;SDS011;6448;48.916;8.990;2023-01-23T01:21:30;5.30;;;4.90;;
12768;SDS011;6448;48.916;8.990;2023-01-23T01:22:32;5.45;;;5.05;;
12768;SDS011;6448;48.916;8.990;2023-01-23T01:23:33;5.72;;;5.32;;
12768;SDS011;6448;48.916;8.990;2023-01-23T01:24:35;5.30;;;4.90;;
12768;SDS011;6448;48.916;8.990;2023-01-23T01:25:35;5.47;;;5.07;;
12768;SDS011;6448;48.916;8.990;2023-01-23T01:26:37;5.57;;;5.18;;
12768;SDS011;6448;48.916;8.990;2023-01-23T01:27:40;5.80;;;5.40;;
12768;SDS011;6448;48.916;8.990;2023-01-23T01:28:41;5.70;;;5.30;;
12768;SDS011;6448;48.916;8.990;2023-01-23T01:29:42;6.07;;;5.67;;
12768;SDS011;6448;48.916;8.990;2023-01-23T01:30:43;5.80;;;5.40;;
12768;SDS011;6448;48.916;8.990;2023-01-23T01:31:46;5.45;;;5.05;;
12768;SDS011;6448;48.916;8.990;2023-01-23T01:32:47;5.97;;;5.57;;
12768;SDS011;6448;48.916;8.990;2023-01-23T01:33:49;5.68;;;5.28;;
12768;SDS011;6448;48.916;8.990;2023-01-23T01:34:51;5.80;;;5.40;;
12768;SDS011;6448;48.916;8.990;2023-01-23T01:35:53;5.70;;;5.30;;
12768;SDS011;6448;48.916;8.990;2023-01-23T01:36:55;5.70;;;5.30;;
12768;SDS011;6448;48.916;8.990;2023-01-23T01:37:57;5.75;;;5.35;;
12768;SDS011;6448;48.916;8.990;2023-01-23T01:38:58;5.40;;;5.00;;
12768;SDS011;6448;48.916;8.990;2023-01-23T01:40:00;6.25;;;5.75;;
12768;SDS011;6448;48.916;8.990;2023-01-23T01:41:01;5.82;;;5.43;;
12768;SDS011;6448;48.916;8.990;2023-01-23T01:42:03;5.75;;;5.35;;
12768;SDS011;6448;48.916;8.990;2023-01-23T01:43:06;5.82;;;5.43;;
12768;SDS011;6448;48.916;8.990;2023-01-23T01:44:12;5.65;;;5.25;;
12768;SDS011;6448;48.916;8.990;2023-01-23T01:46:56;5.90;;;5.50;;
12768;SDS011;6448;48.916;8.990;2023-01-23T01:47:58;5.40;;;5.00;;
12768;SDS011;6448;48.916;8.990;2023-01-23T01:49:00;5.60;;;5.20;;
12768;SDS011;6448;48.916;8.990;2023-01-23T01:50:06;5.47;;;5.07;;
12768;SDS011;6448;48.916;8.990;2023-01-23T01:51:12;5.53;;;5.13;;
12768;SDS011;6448;48.916;8.990;2023-01-23T01:52:21;5.60;;;5.20;;
12768;SDS011;6448;48.916;8.990;2023-01-23T01:53:25;5.13;;;4.80;;
12768;SDS011;6448;48.916;8.990;2023-01-23T01:54:29;6.05;;;5.55;;
12768;SDS011;6448;48.916;8.990;2023-01-23T01:55:33;5.40;;;5.00;;
12768;SDS011;6448;48.916;8.990;2023-01-23T01:56:34;5.43;;;5.03;;
12768;SDS011;6448;48.916;8.990;2023-01-23T01:57:40;5.22;;;4.82;;
12768;SDS011;6448;48.916;8.990;2023-01-23T01:58:44;5.18;;;4.88;;
12768;SDS011;6448;48.916;8.990;2023-01-23T01:59:50;5.55;;;5.15;;
12768;SDS011;6448;48.916;8.990;2023-01-23T02:01:00;5.47;;;5.07;;
12768;SDS011;6448;48.916;8.990;2023-01-23T02:02:06;5.20;;;4.80;;
12768;SDS011;6448;48.916;8.990;2023-01-23T02:03:11;5.30;;;4.90;;
12768;SDS011;6448;48.916;8.990;2023-01-23T02:04:12;5.63;;;5.22;;
12768;SDS011;6448;48.916;8.990;2023-01-23T02:05:15;5.45;;;5.05;;
12768;SDS011;6448;48.916;8.990;2023-01-23T02:06:19;5.38;;;4.97;;
12768;SDS011;6448;48.916;8.990;2023-01-23T02:07:22;5.70;;;5.30;;
12768;SDS011;6448;48.916;8.990;2023-01-23T02:08:25;5.75;;;5.35;;
12768;SDS011;6448;48.916;8.990;2023-01-23T02:09:32;5.45;;;5.05;;
12768;SDS011;6448;48.916;8.990;2023-01-23T02:10:34;5.80;;;5.40;;
12768;SDS011;6448;48.916;8.990;2023-01-23T02:11:36;5.40;;;5.00;;
12768;SDS011;6448;48.916;8.990;2023-01-23T02:12:43;5.40;;;5.00;;
12768;SDS011;6448;48.916;8.990;2023-01-23T02:13:45;5.70;;;5.30;;
12768;SDS011;6448;48.916;8.990;2023-01-23T02:14:47;5.68;;;5.28;;
12768;SDS011;6448;48.916;8.990;2023-01-23T02:15:48;5.60;;;5.20;;
12768;SDS011;6448;48.916;8.990;2023-01-23T02:16:51;5.38;;;4.97;;
12768;SDS011;6448;48.916;8.990;2023-01-23T02:17:56;5.78;;;5.38;;
12768;SDS011;6448;48.916;8.990;2023-01-23T02:19:00;5.80;;;5.40;;
12768;SDS011;6448;48.916;8.990;2023-01-23T02:20:05;5.40;;;5.00;;
12768;SDS011;6448;48.916;8.990;2023-01-23T02:21:14;5.80;;;5.40;;
12768;SDS011;6448;48.916;8.990;2023-01-23T02:22:23;5.57;;;5.18;;
12768;SDS011;6448;48.916;8.990;2023-01-23T02:23:36;5.80;;;5.40;;
12768;SDS011;6448;48.916;8.990;2023-01-23T02:24:46;5.30;;;4.90;;
12768;SDS011;6448;48.916;8.990;2023-01-23T02:25:58;5.82;;;5.43;;
12768;SDS011;6448;48.916;8.990;2023-01-23T02:27:01;5.47;;;5.07;;
12768;SDS011;6448;48.916;8.990;2023-01-23T02:28:05;5.60;;;5.20;;
12768;SDS011;6448;48.916;8.990;2023-01-23T02:29:10;5.43;;;5.03;;
12768;SDS011;6448;48.916;8.990;2023-01-23T02:30:20;5.63;;;5.22;;
12768;SDS011;6448;48.916;8.990;2023-01-23T02:31:22;5.90;;;5.50;;
12768;SDS011;6448;48.916;8.990;2023-01-23T02:32:23;5.70;;;5.30;;
12768;SDS011;6448;48.916;8.990;2023-01-23T02:33:48;5.40;;;5.00;;
12768;SDS011;6448;48.916;8.990;2023-01-23T02:34:52;5.53;;;5.13;;
12768;SDS011;6448;48.916;8.990;2023-01-23T02:35:56;5.72;;;5.32;;
12768;SDS011;6448;48.916;8.990;2023-01-23T02:36:58;5.85;;;5.45;;
12768;SDS011;6448;48.916;8.990;2023-01-23T02:38:00;5.70;;;5.30;;
12768;SDS011;6448;48.916;8.990;2023-01-23T02:39:06;5.75;;;5.35;;
12768;SDS011;6448;48.916;8.990;2023-01-23T02:40:10;5.57;;;5.18;;
12768;SDS011;6448;48.916;8.990;2023-01-23T02:41:14;5.65;;;5.25;;
12768;SDS011;6448;48.916;8.990;2023-01-23T02:42:18;5.70;;;5.30;;
12768;SDS011;6448;48.916;8.990;2023-01-23T02:43:24;6.05;;;5.65;;
12768;SDS011;6448;48.916;8.990;2023-01-23T02:44:34;5.50;;;5.10;;
12768;SDS011;6448;48.916;8.990;2023-01-23T02:45:37;5.47;;;5.07;;
12768;SDS011;6448;48.916;8.990;2023-01-23T02:46:39;5.72;;;5.32;;
12768;SDS011;6448;48.916;8.990;2023-01-23T02:47:41;5.53;;;5.13;;
12768;SDS011;6448;48.916;8.990;2023-01-23T02:48:42;5.60;;;5.20;;
12768;SDS011;6448;48.916;8.990;2023-01-23T02:49:44;5.63;;;5.22;;
12768;SDS011;6448;48.916;8.990;2023-01-23T02:50:45;5.70;;;5.30;;
12768;SDS011;6448;48.916;8.990;2023-01-23T02:51:47;5.78;;;5.38;;
12768;SDS011;6448;48.916;8.990;2023-01-23T02:52:48;5.60;;;5.20;;
12768;SDS011;6448;48.916;8.990;2023-01-23T02:53:53;5.70;;;5.30;;
12768;SDS011;6448;48.916;8.990;2023-01-23T02:54:54;5.70;;;5.30;;
12768;SDS011;6448;48.916;8.990;2023-01-23T02:55:56;5.60;;;5.20;;
12768;SDS011;6448;48.916;8.990;2023-01-23T02:57:01;5.72;;;5.32;;
12768;SDS011;6448;48.916;8.990;2023-01-23T02:58:04;4.95;;;4.63;;
12768;SDS011;6448;48.916;8.990;2023-01-23T02:59:20;5.40;;;5.00;;
12768;SDS011;6448;48.916;8.990;2023-01-23T03:00:52;5.80;;;5.40;;
12768;SDS011;6448;48.916;8.990;2023-01-23T03:01:55;5.10;;;4.70;;
12768;SDS011;6448;48.916;8.990;2023-01-23T03:02:57;5.55;;;5.15;;
12768;SDS011;6448;48.916;8.990;2023-01-23T03:03:58;6.05;;;5.55;;
12768;SDS011;6448;48.916;8.990;2023-01-23T03:05:03;5.40;;;5.00;;
12768;SDS011;6448;48.916;8.990;2023-01-23T03:06:05;5.90;;;5.40;;
12768;SDS011;6448;48.916;8.990;2023-01-23T03:07:07;5.55;;;5.15;;
12768;SDS011;6448;48.916;8.990;2023-01-23T03:08:08;5.80;;;5.40;;
12768;SDS011;6448;48.916;8.990;2023-01-23T03:09:11;5.40;;;5.00;;
12768;SDS011;6448;48.916;8.990;2023-01-23T03:10:13;5.50;;;5.10;;
12768;SDS011;6448;48.916;8.990;2023-01-23T03:11:18;5.75;;;5.35;;
12768;SDS011;6448;48.916;8.990;2023-01-23T03:12:20;5.85;;;5.45;;
12768;SDS011;6448;48.916;8.990;2023-01-23T03:13:22;5.70;;;5.30;;
12768;SDS011;6448;48.916;8.990;2023-01-23T03:14:23;5.53;;;5.13;;
12768;SDS011;6448;48.916;8.990;2023-01-23T03:15:26;5.60;;;5.20;;
12768;SDS011;6448;48.916;8.990;2023-01-23T03:16:27;5.78;;;5.38;;
12768;SDS011;6448;48.916;8.990;2023-01-23T03:17:28;5.60;;;5.20;;
12768;SDS011;6448;48.916;8.990;2023-01-23T03:18:32;5.43;;;5.03;;
12768;SDS011;6448;48.916;8.990;2023-01-23T03:19:33;5.40;;;5.00;;
12768;SDS011;6448;48.916;8.990;2023-01-23T03:20:37;5.70;;;5.30;;
12768;SDS011;6448;48.916;8.990;2023-01-23T03:21:38;5.75;;;5.35;;
12768;SDS011;6448;48.916;8.990;2023-01-23T03:22:41;5.60;;;5.20;;
12768;SDS011;6448;48.916;8.990;2023-01-23T03:23:42;5.90;;;5.47;;
12768;SDS011;6448;48.916;8.990;2023-01-23T03:24:46;5.80;;;5.40;;
12768;SDS011;6448;48.916;8.990;2023-01-23T03:25:48;5.65;;;5.25;;
12768;SDS011;6448;48.916;8.990;2023-01-23T03:26:58;5.72;;;5.32;;
12768;SDS011;6448;48.916;8.990;2023-01-23T03:28:04;5.70;;;5.30;;
12768;SDS011;6448;48.916;8.990;2023-01-23T03:29:26;5.72;;;5.28;;
12768;SDS011;6448;48.916;8.990;2023-01-23T03:30:48;5.80;;;5.40;;
12768;SDS011;6448;48.916;8.990;2023-01-23T03:31:48;5.73;;;5.33;;
12768;SDS011;6448;48.916;8.990;2023-01-23T03:32:50;5.75;;;5.32;;
12768;SDS011;6448;48.916;8.990;2023-01-23T03:33:52;5.95;;;5.55;;
12768;SDS011;6448;48.916;8.990;2023-01-23T03:34:54;6.00;;;5.50;;
12768;SDS011;6448;48.916;8.990;2023-01-23T03:35:56;6.10;;;5.60;;
12768;SDS011;6448;48.916;8.990;2023-01-23T03:36:58;5.60;;;5.20;;
12768;SDS011;6448;48.916;8.990;2023-01-23T03:38:01;5.28;;;4.88;;
12768;SDS011;6448;48.916;8.990;2023-01-23T03:39:03;5.53;;;5.13;;
12768;SDS011;6448;48.916;8.990;2023-01-23T03:40:23;6.10;;;5.60;;
12768;SDS011;6448;48.916;8.990;2023-01-23T03:41:47;6.00;;;5.50;;
12768;SDS011;6448;48.916;8.990;2023-01-23T03:42:50;5.80;;;5.40;;
12768;SDS011;6448;48.916;8.990;2023-01-23T03:43:59;5.75;;;5.35;;
12768;SDS011;6448;48.916;8.990;2023-01-23T03:45:01;6.30;;;5.80;;
12768;SDS011;6448;48.916;8.990;2023-01-23T03:46:05;5.80;;;5.40;;
12768;SDS011;6448;48.916;8.990;2023-01-23T03:47:08;6.22;;;5.72;;
12768;SDS011;6448;48.916;8.990;2023-01-23T03:48:12;6.13;;;5.63;;
12768;SDS011;6448;48.916;8.990;2023-01-23T03:49:14;6.25;;;5.75;;
12768;SDS011;6448;48.916;8.990;2023-01-23T03:50:16;5.80;;;5.40;;
12768;SDS011;6448;48.916;8.990;2023-01-23T03:51:17;5.97;;;5.57;;
12768;SDS011;6448;48.916;8.990;2023-01-23T03:52:19;5.60;;;5.20;;
12768;SDS011;6448;48.916;8.990;2023-01-23T03:53:20;6.00;;;5.53;;
12768;SDS011;6448;48.916;8.990;2023-01-23T03:54:22;5.78;;;5.38;;
12768;SDS011;6448;48.916;8.990;2023-01-23T03:55:24;6.10;;;5.60;;
12768;SDS011;6448;48.916;8.990;2023-01-23T03:56:27;6.32;;;5.82;;
12768;SDS011;6448;48.916;8.990;2023-01-23T03:57:29;6.68;;;6.18;;
12768;SDS011;6448;48.916;8.990;2023-01-23T03:58:46;6.53;;;6.03;;
12768;SDS011;6448;48.916;8.990;2023-01-23T03:59:48;6.00;;;5.60;;
12768;SDS011;6448;48.916;8.990;2023-01-23T04:00:53;6.00;;;5.57;;
12768;SDS011;6448;48.916;8.990;2023-01-23T04:01:54;6.20;;;5.70;;
12768;SDS011;6448;48.916;8.990;2023-01-23T04:02:57;6.30;;;5.80;;
12768;SDS011;6448;48.916;8.990;2023-01-23T04:03:58;6.45;;;5.85;;
12768;SDS011;6448;48.916;8.990;2023-01-23T04:04:59;6.45;;;5.95;;
12768;SDS011;6448;48.916;8.990;2023-01-23T04:06:00;6.60;;;6.10;;
12768;SDS011;6448;48.916;8.990;2023-01-23T04:07:02;6.30;;;5.80;;
12768;SDS011;6448;48.916;8.990;2023-01-23T04:08:05;6.28;;;5.78;;
12768;SDS011;6448;48.916;8.990;2023-01-23T04:09:06;6.28;;;5.78;;
12768;SDS011;6448;48.916;8.990;2023-01-23T04:10:08;6.63;;;6.13;;
12768;SDS011;6448;48.916;8.990;2023-01-23T04:11:09;6.43;;;5.93;;
12768;SDS011;6448;48.916;8.990;2023-01-23T04:12:12;6.60;;;6.10;;
12768;SDS011;6448;48.916;8.990;2023-01-23T04:13:16;6.30;;;5.80;;
12768;SDS011;6448;48.916;8.990;2023-01-23T04:14:18;6.25;;;5.75;;
12768;SDS011;6448;48.916;8.990;2023-01-23T04:15:20;6.53;;;6.03;;
12768;SDS011;6448;48.916;8.990;2023-01-23T04:16:24;6.73;;;6.23;;
12768;SDS011;6448;48.916;8.990;2023-01-23T04:17:27;6.50;;;6.00;;
12768;SDS011;6448;48.916;8.990;2023-01-23T04:18:29;6.13;;;5.65;;
12768;SDS011;6448;48.916;8.990;2023-01-23T04:19:30;6.70;;;6.20;;
12768;SDS011;6448;48.916;8.990;2023-01-23T04:20:32;6.63;;;6.13;;
12768;SDS011;6448;48.916;8.990;2023-01-23T04:21:33;6.53;;;6.03;;
12768;SDS011;6448;48.916;8.990;2023-01-23T04:22:35;6.60;;;6.10;;
12768;SDS011;6448;48.916;8.990;2023-01-23T04:23:35;6.30;;;5.80;;
12768;SDS011;6448;48.916;8.990;2023-01-23T04:24:37;6.65;;;6.15;;
12768;SDS011;6448;48.916;8.990;2023-01-23T04:25:38;6.60;;;6.10;;
12768;SDS011;6448;48.916;8.990;2023-01-23T04:26:45;6.45;;;5.95;;
12768;SDS011;6448;48.916;8.990;2023-01-23T04:27:46;6.63;;;6.13;;
12768;SDS011;6448;48.916;8.990;2023-01-23T04:28:47;6.60;;;6.10;;
12768;SDS011;6448;48.916;8.990;2023-01-23T04:29:50;6.70;;;6.20;;
12768;SDS011;6448;48.916;8.990;2023-01-23T04:30:53;6.55;;;6.05;;
12768;SDS011;6448;48.916;8.990;2023-01-23T04:32:01;6.82;;;6.32;;
12768;SDS011;6448;48.916;8.990;2023-01-23T04:33:05;6.88;;;6.38;;
12768;SDS011;6448;48.916;8.990;2023-01-23T04:34:07;6.60;;;6.10;;
12768;SDS011;6448;48.916;8.990;2023-01-23T04:35:09;6.43;;;5.93;;
12768;SDS011;6448;48.916;8.990;2023-01-23T04:36:12;7.20;;;6.65;;
12768;SDS011;6448;48.916;8.990;2023-01-23T04:37:14;6.63;;;6.13;;
12768;SDS011;6448;48.916;8.990;2023-01-23T04:38:16;6.68;;;6.18;;
12768;SDS011;6448;48.916;8.990;2023-01-23T04:39:17;6.78;;;6.28;;
12768;SDS011;6448;48.916;8.990;2023-01-23T04:40:21;6.55;;;6.05;;
12768;SDS011;6448;48.916;8.990;2023-01-23T04:41:28;6.35;;;5.85;;
12768;SDS011;6448;48.916;8.990;2023-01-23T04:42:38;6.80;;;6.30;;
12768;SDS011;6448;48.916;8.990;2023-01-23T04:43:59;6.72;;;6.20;;
12768;SDS011;6448;48.916;8.990;2023-01-23T04:45:22;6.55;;;6.05;;
12768;SDS011;6448;48.916;8.990;2023-01-23T04:46:27;6.60;;;6.10;;
12768;SDS011;6448;48.916;8.990;2023-01-23T04:47:33;7.10;;;6.60;;
12768;SDS011;6448;48.916;8.990;2023-01-23T04:48:36;6.65;;;6.15;;
12768;SDS011;6448;48.916;8.990;2023-01-23T04:49:38;7.07;;;6.53;;
12768;SDS011;6448;48.916;8.990;2023-01-23T04:50:40;6.70;;;6.20;;
12768;SDS011;6448;48.916;8.990;2023-01-23T04:51:41;6.60;;;6.10;;
12768;SDS011;6448;48.916;8.990;2023-01-23T04:52:43;7.07;;;6.57;;
12768;SDS011;6448;48.916;8.990;2023-01-23T04:53:46;6.78;;;6.22;;
12768;SDS011;6448;48.916;8.990;2023-01-23T04:54:46;7.40;;;6.80;;
12768;SDS011;6448;48.916;8.990;2023-01-23T04:55:48;6.90;;;6.38;;
12768;SDS011;6448;48.916;8.990;2023-01-23T04:56:50;7.10;;;6.60;;
12768;SDS011;6448;48.916;8.990;2023-01-23T04:57:53;7.10;;;6.60;;
12768;SDS011;6448;48.916;8.990;2023-01-23T04:58:58;7.03;;;6.53;;
12768;SDS011;6448;48.916;8.990;2023-01-23T05:00:00;6.78;;;6.28;;
12768;SDS011;6448;48.916;8.990;2023-01-23T05:01:02;6.90;;;6.40;;
12768;SDS011;6448;48.916;8.990;2023-01-23T05:02:08;7.00;;;6.50;;
12768;SDS011;6448;48.916;8.990;2023-01-23T05:03:15;7.22;;;6.72;;
12768;SDS011;6448;48.916;8.990;2023-01-23T05:04:20;6.90;;;6.40;;
12768;SDS011;6448;48.916;8.990;2023-01-23T05:05:22;7.20;;;6.68;;
12768;SDS011;6448;48.916;8.990;2023-01-23T05:06:27;7.18;;;6.68;;
12768;SDS011;6448;48.916;8.990;2023-01-23T05:07:30;6.88;;;6.38;;
12768;SDS011;6448;48.916;8.990;2023-01-23T05:08:50;7.32;;;6.72;;
12768;SDS011;6448;48.916;8.990;2023-01-23T05:09:58;7.53;;;6.93;;
12768;SDS011;6448;48.916;8.990;2023-01-23T05:10:59;7.60;;;7.00;;
12768;SDS011;6448;48.916;8.990;2023-01-23T05:12:01;7.50;;;6.90;;
12768;SDS011;6448;48.916;8.990;2023-01-23T05:13:05;7.15;;;6.65;;
12768;SDS011;6448;48.916;8.990;2023-01-23T05:14:09;7.53;;;6.93;;
12768;SDS011;6448;48.916;8.990;2023-01-23T05:15:10;8.15;;;7.53;;
12768;SDS011;6448;48.916;8.990;2023-01-23T05:16:14;8.07;;;7.47;;
12768;SDS011;6448;48.916;8.990;2023-01-23T05:17:36;7.75;;;7.15;;
12768;SDS011;6448;48.916;8.990;2023-01-23T05:18:39;7.97;;;7.38;;
12768;SDS011;6448;48.916;8.990;2023-01-23T05:19:40;7.53;;;6.93;;
12768;SDS011;6448;48.916;8.990;2023-01-23T05:20:42;7.43;;;6.82;;
12768;SDS011;6448;48.916;8.990;2023-01-23T05:21:43;7.68;;;7.07;;
12768;SDS011;6448;48.916;8.990;2023-01-23T05:22:51;7.50;;;6.90;;
12768;SDS011;6448;48.916;8.990;2023-01-23T05:23:55;7.80;;;7.20;;
12768;SDS011;6448;48.916;8.990;2023-01-23T05:24:56;8.00;;;7.40;;
12768;SDS011;6448;48.916;8.990;2023-01-23T05:26:00;7.85;;;7.25;;
12768;SDS011;6448;48.916;8.990;2023-01-23T05:27:03;7.50;;;6.90;;
12768;SDS011;6448;48.916;8.990;2023-01-23T05:28:09;7.63;;;7.03;;
12768;SDS011;6448;48.916;8.990;2023-01-23T05:29:17;7.35;;;6.75;;
12768;SDS011;6448;48.916;8.990;2023-01-23T05:30:27;7.72;;;7.13;;
12768;SDS011;6448;48.916;8.990;2023-01-23T05:31:43;7.80;;;7.20;;
12768;SDS011;6448;48.916;8.990;2023-01-23T05:33:09;7.57;;;6.97;;
12768;SDS011;6448;48.916;8.990;2023-01-23T05:34:11;7.93;;;7.32;;
12768;SDS011;6448;48.916;8.990;2023-01-23T05:35:13;8.15;;;7.55;;
12768;SDS011;6448;48.916;8.990;2023-01-23T05:36:17;8.15;;;7.55;;
12768;SDS011;6448;48.916;8.990;2023-01-23T05:37:18;8.05;;;7.45;;
12768;SDS011;6448;48.916;8.990;2023-01-23T05:38:25;7.82;;;7.22;;
12768;SDS011;6448;48.916;8.990;2023-01-23T05:39:27;8.00;;;7.40;;
12768;SDS011;6448;48.916;8.990;2023-01-23T05:40:32;7.93;;;7.32;;
12768;SDS011;6448;48.916;8.990;2023-01-23T05:41:53;7.95;;;7.25;;
12768;SDS011;6448;48.916;8.990;2023-01-23T05:43:19;8.05;;;7.45;;
12768;SDS011;6448;48.916;8.990;2023-01-23T05:44:53;8.10;;;7.50;;
12768;SDS011;6448;48.916;8.990;2023-01-23T05:46:01;8.13;;;7.53;;
12768;SDS011;6448;48.916;8.990;2023-01-23T05:47:17;7.87;;;7.27;;
12768;SDS011;6448;48.916;8.990;2023-01-23T05:48:20;8.10;;;7.50;;
12768;SDS011;6448;48.916;8.990;2023-01-23T05:49:21;7.75;;;7.15;;
12768;SDS011;6448;48.916;8.990;2023-01-23T05:50:24;8.10;;;7.50;;
12768;SDS011;6448;48.916;8.990;2023-01-23T05:51:26;8.00;;;7.40;;
12768;SDS011;6448;48.916;8.990;2023-01-23T05:52:32;8.05;;;7.45;;
12768;SDS011;6448;48.916;8.990;2023-01-23T05:53:33;8.10;;;7.50;;
12768;SDS011;6448;48.916;8.990;2023-01-23T05:54:35;8.05;;;7.45;;
12768;SDS011;6448;48.916;8.990;2023-01-23T05:55:36;8.10;;;7.50;;
12768;SDS011;6448;48.916;8.990;2023-01-23T05:56:39;7.78;;;7.18;;
12768;SDS011;6448;48.916;8.990;2023-01-23T05:57:59;8.25;;;7.55;;
12768;SDS011;6448;48.916;8.990;2023-01-23T05:59:19;7.95;;;7.35;;
12768;SDS011;6448;48.916;8.990;2023-01-23T06:00:34;8.30;;;7.65;;
12768;SDS011;6448;48.916;8.990;2023-01-23T06:01:58;8.30;;;7.60;;
12768;SDS011;6448;48.916;8.990;2023-01-23T06:03:36;8.00;;;7.40;;
12768;SDS011;6448;48.916;8.990;2023-01-23T06:04:55;8.20;;;7.60;;
12768;SDS011;6448;48.916;8.990;2023-01-23T06:06:09;8.15;;;7.55;;
12768;SDS011;6448;48.916;8.990;2023-01-23T06:07:11;8.20;;;7.60;;
12768;SDS011;6448;48.916;8.990;2023-01-23T06:08:13;8.30;;;7.68;;
12768;SDS011;6448;48.916;8.990;2023-01-23T06:09:15;7.80;;;7.20;;
12768;SDS011;6448;48.916;8.990;2023-01-23T06:10:16;7.60;;;7.00;;
12768;SDS011;6448;48.916;8.990;2023-01-23T06:11:18;7.93;;;7.32;;
12768;SDS011;6448;48.916;8.990;2023-01-23T06:12:19;7.90;;;7.30;;
12768;SDS011;6448;48.916;8.990;2023-01-23T06:13:21;8.68;;;7.97;;
12768;SDS011;6448;48.916;8.990;2023-01-23T06:14:21;8.10;;;7.50;;
12768;SDS011;6448;48.916;8.990;2023-01-23T06:15:23;8.50;;;7.80;;
12768;SDS011;6448;48.916;8.990;2023-01-23T06:16:27;8.10;;;7.50;;
12768;SDS011;6448;48.916;8.990;2023-01-23T06:17:30;8.15;;;7.55;;
12768;SDS011;6448;48.916;8.990;2023-01-23T06:18:31;8.93;;;8.23;;
12768;SDS011;6448;48.916;8.990;2023-01-23T06:19:34;8.32;;;7.70;;
12768;SDS011;6448;48.916;8.990;2023-01-23T06:20:37;8.15;;;7.55;;
12768;SDS011;6448;48.916;8.990;2023-01-23T06:21:38;8.50;;;7.90;;
12768;SDS011;6448;48.916;8.990;2023-01-23T06:22:40;9.13;;;8.43;;
12768;SDS011;6448;48.916;8.990;2023-01-23T06:23:46;8.57;;;7.88;;
12768;SDS011;6448;48.916;8.990;2023-01-23T06:24:49;8.18;;;7.57;;
12768;SDS011;6448;48.916;8.990;2023-01-23T06:25:51;8.68;;;7.97;;
12768;SDS011;6448;48.916;8.990;2023-01-23T06:26:53;8.32;;;7.72;;
12768;SDS011;6448;48.916;8.990;2023-01-23T06:27:56;8.80;;;8.10;;
12768;SDS011;6448;48.916;8.990;2023-01-23T06:29:01;8.57;;;7.97;;
12768;SDS011;6448;48.916;8.990;2023-01-23T06:30:04;8.60;;;8.00;;
12768;SDS011;6448;48.916;8.990;2023-01-23T06:31:11;8.32;;;7.72;;
12768;SDS011;6448;48.916;8.990;2023-01-23T06:32:21;8.15;;;7.55;;
12768;SDS011;6448;48.916;8.990;2023-01-23T06:33:23;8.75;;;8.07;;